Aeroporto :
LOGIN :

Iscrizione | Disclaimer

   EN    FR    IT 

 










Sommario :    VFR   VFR Marginale   IFR   IFR Intensivo   IFR Molto Intensivo
Visibilità : 
Base nubi : 
>= 8 km
>= 3000ft
5 / 8 km
1000 / 3000 ft
1500m / 5 km
500 / 1000 ft
800 / 1500m
200 / 500 ft
< 800m
< 200 ft
Simboli :   Temporali  Nebbia  Neve Forte  Precipitazioni Forti  Vento > 20 kt
SIGMETs :   Varie  Temporali  Ghiacco  Turbolenza  Onda orograficha  Ceneri Vulcaniche






- Altitudine del aeroporto : 796 ft
- Codice IATA : SYT


LFLN - Saint-Yan

ULTIMO METAR :
  • 210800Z AUTO 00000KT 3300 BR NSC M00/M00 Q1007 TEMPO 0500 FG VV///

METARs OBSOLETI :
  • 210730Z AUTO 00000KT 2900 BR NSC M02/M02 Q1007 TEMPO 0500 FG VV///
  • 210700Z AUTO 00000KT 2800 BR NSC M03/M03 Q1007 TEMPO 0500 FG VV///
  • 210630Z AUTO 00000KT 4700 BR NSC M03/M03 Q1007 TEMPO 0500 FG VV///
  • 210600Z AUTO 00000KT 4300 BR NSC M03/M03 Q1007 TEMPO 0500 FG VV///
  • 210530Z AUTO 13003KT 3200 BR FEW005 M02/M02 Q1007 TEMPO 0500 FG VV///

TAF TAF LFLN
Valido dal 21 a 06 ore il 21 a 15 ore UTC


210500Z 2106/2115 VRB02KT 4000 BR NSC
TEMPO 2106/2110 0500 FG VV///
BECMG 2110/2112 CAVOK
BECMG 2112/2114 16010KT



MetMap, La meteo Aeronautica in un colpo d'occhio ! - Copyright ORBIFLY Dicembre 2007 - Disclaimer

ORBIFLY MET'MAP TEAM :

Programmazione e sviluppo : Alexandra Zaïnal
Concezione e sviluppo : Baudouin d'Aumeries
Co-Programmazione e sviluppo : Marc-Olivier Méhu
Supporto tecnico e logistico : Manuel Goepfert
Aiuto per la traduzione : Arnaldo La Scala

Contatto : metmap@orbifly.com




FONTI E CREDITI :

   NOAA